Terminal Aerodrome Forecast
Issued by NWS

Home | Current Version | Previous Version | Text Only | Print | Product List | Glossary On
Versions: 1 2 3 4 5 6 7 8 9 10 11 12 13 14
000
FTUS44 KCRP 051132
TAFALI
TAF
KALI 051132Z 0512/0612 13007KT P6SM BKN015
     FM051500 14013G18KT P6SM BKN025 OVC060
     FM051700 13017G26KT P6SM VCSH SCT025 OVC060
     FM060300 13013KT P6SM BKN020
      TEMPO 0606/0610 SCT020 BKN250
     FM061000 13008KT P6SM BKN018=

USA.gov is the U.S. government's official web portal to all federal, state and local government web resources and services.